Sample Charts Sidebar
> Live data! Your data is on the web site for you to access within minutes
 
> Detailed data is easily downloaded as data file, which can be opened with Excel
 
> Charts can be customised if necessary
  Chart 1
 

(A maximum of 50 rows are displayed here. Use "Export Data" to see all rows in the date range.)
Date Collected Temp
(Celcius)
Wind-chill
(Celcius)
Wind Speed
(km/hr)
Gust
(km/hr)
Wind Direction
(degrees)
2018-12-11 14:00 18.9 17.9 4 11 34
2018-12-11 13:00 19.3 18.2 4 12 359
2018-12-11 12:00 19.4 17.4 6 15 28
2018-12-11 11:00 19.3 17.9 5 11 10
2018-12-11 10:00 18.9 17.7 4 10 29
2018-12-11 09:00 19.5 17.5 6 17 16
2018-12-11 08:00 19.0 17.6 5 13 38
2018-12-11 07:00 20.0 17.9 6 18 31
2018-12-11 06:00 20.2 18.0 6 18 19
2018-12-11 05:00 20.0 17.9 6 16 27
2018-12-11 04:00 20.2 17.8 7 15 24
2018-12-11 03:00 20.0 17.7 7 16 23
2018-12-11 02:00 19.7 17.4 6 22 26
2018-12-11 01:00 18.9 16.8 6 13 42
2018-12-11 00:00 17.7 16.8 4 10 42
2018-12-10 23:00 16.6 16.2 3 7 54
2018-12-10 22:00 16.4 16.1 3 6 60
2018-12-10 21:00 16.9 16.4 4 7 58
2018-12-10 20:00 17.3 17.2 3 6 52
2018-12-10 19:00 17.7 17.7 2 4 69
2018-12-10 18:00 18.3 18.3 2 5 50
2018-12-10 17:00 18.9 18.9 2 5 25
2018-12-10 16:00 19.4 19.4 2 5 5
2018-12-10 15:00 19.8 19.7 2 6 21
2018-12-10 14:00 19.6 19.1 3 7 36
2018-12-10 13:00 17.9 16.6 4 9 45
2018-12-10 12:00 16.1 14.4 5 10 46
2018-12-10 11:00 14.0 12.7 4 10 46
2018-12-10 10:00 12.5 10.8 5 9 51
2018-12-10 09:00 10.5 6.7 6 11 42
2018-12-10 08:00 9.0 5.7 6 13 47
2018-12-10 07:00 8.6 7.0 4 9 54
2018-12-10 06:00 8.5 7.2 4 8 57
2018-12-10 05:00 8.8 7.7 4 8 51
2018-12-10 04:00 9.4 7.5 4 10 42
2018-12-10 03:00 9.2 8.8 3 6 41
2018-12-10 02:00 9.7 9.7 2 5 47
2018-12-10 01:00 10.9 10.9 2 5 56
2018-12-10 00:00 11.8 11.8 2 5 56
2018-12-09 23:00 12.1 12.1 2 5 68
2018-12-09 22:00 12.2 12.1 2 5 69
2018-12-09 21:00 11.8 11.9 2 5 51
2018-12-09 20:00 11.7 11.7 2 4 37
2018-12-09 19:00 12.7 12.8 0 1 0
2018-12-09 18:00 14.2 14.3 0 1 293
2018-12-09 17:00 16.1 16.2 1 1 270
2018-12-09 16:00 16.9 17.1 2 5 243
2018-12-09 15:00 17.3 16.9 3 7 248
2018-12-09 14:00 17.5 17.4 3 5 238
2018-12-09 13:00 17.3 16.9 3 7 252